Terminal Aerodrome Forecast
Issued by NWS

Home | Current Version | Previous Version | Graphics & Text | Print | Product List | Glossary On
Versions: 1 2 3 4 5 6 7 8 9 10 11 12 13
000
FTUS43 KIWX 182300 RRA
TAFSBN
TAF
KSBN 182342Z 1900/1924 29005KT P6SM OVC025
      TEMPO 1904/1907 5SM -SHSN BR OVC018
     FM191200 32005KT P6SM BKN020=

USA.gov is the U.S. government's official web portal to all federal, state and local government web resources and services.